Time;durP1;ratioP1;P1;durP2;ratioP2;P2;SDS_P1;SDS_P2;PMS_P1;PMS_P2;Temp;Humidity;BMP_temperature;BMP_pressure;BME280_temperature;BME280_humidity;BME280_pressure;Samples;Min_cycle;Max_cycle;Signal;HPM_P1;HPM_P2
2024/01/04 00:01:19;;;;;;;0.50;0.43;;;;;;;-21.67;51.45;98940.13;5053822;28;20095;-55
2024/01/04 00:03:45;;;;;;;1.25;0.57;;;;;;;-21.64;51.78;98946.88;5078898;28;20507;-55
2024/01/04 00:06:11;;;;;;;9.07;1.15;;;;;;;-21.66;51.99;98940.97;5071769;28;20052;-57
2024/01/04 00:08:38;;;;;;;0.98;0.30;;;;;;;-21.63;51.60;98946.16;5054478;28;20058;-55
2024/01/04 00:11:07;;;;;;;0.45;0.45;;;;;;;-21.63;51.66;98951.06;5068421;28;20566;-57
2024/01/04 00:13:34;;;;;;;2.15;0.30;;;;;;;-21.64;51.56;98944.41;5078922;28;20047;-59
2024/01/04 00:16:00;;;;;;;1.35;0.95;;;;;;;-21.69;51.89;98945.66;5082325;28;20042;-57
2024/01/04 00:18:27;;;;;;;0.82;0.82;;;;;;;-21.68;52.30;98944.94;5084172;28;20070;-57
2024/01/04 00:20:53;;;;;;;2.85;0.90;;;;;;;-21.69;52.02;98941.59;5084566;28;20031;-58
2024/01/04 00:23:19;;;;;;;1.55;0.80;;;;;;;-21.69;51.88;98945.66;5083991;28;20039;-54
2024/01/04 00:25:46;;;;;;;0.00;0.00;;;;;;;-22.03;52.19;98892.94;5071324;28;20631;-52
2024/01/04 00:28:11;;;;;;;1.77;0.82;;;;;;;-21.69;52.23;98949.00;5084482;28;20507;-52
2024/01/04 00:30:38;;;;;;;0.40;0.22;;;;;;;-21.73;52.13;98939.66;5083939;28;20534;-55
2024/01/04 00:33:05;;;;;;;2.20;1.08;;;;;;;-21.66;52.43;98951.69;5049399;28;20044;-55
2024/01/04 00:35:31;;;;;;;1.15;1.05;;;;;;;-21.65;52.16;98955.00;5086903;28;20097;-56
2024/01/04 00:37:57;;;;;;;1.50;1.15;;;;;;;-21.58;52.70;98952.28;5084898;28;20038;-53
2024/01/04 00:40:23;;;;;;;3.90;1.52;;;;;;;-21.55;51.92;98947.59;5079931;28;20032;-55
2024/01/04 00:42:50;;;;;;;2.67;1.30;;;;;;;-21.53;52.09;98943.66;5036932;28;20473;-54
2024/01/04 00:45:16;;;;;;;1.15;0.60;;;;;;;-21.50;52.10;98943.00;5049041;28;20036;-53
2024/01/04 00:47:42;;;;;;;5.28;0.75;;;;;;;-21.47;51.86;98933.38;5083879;28;20160;-55
2024/01/04 00:50:08;;;;;;;0.38;0.38;;;;;;;-21.48;52.64;98929.19;5082866;28;20041;-57
2024/01/04 00:52:34;;;;;;;2.15;1.40;;;;;;;-21.48;52.30;98925.13;5081076;28;20036;-56
2024/01/04 00:55:00;;;;;;;2.13;1.15;;;;;;;-21.46;52.08;98915.38;5084622;28;20063;-52
2024/01/04 00:57:26;;;;;;;0.65;0.52;;;;;;;-21.48;52.04;98911.94;5059867;28;20404;-52
2024/01/04 00:59:53;;;;;;;4.45;1.13;;;;;;;-21.56;51.84;98899.88;5082478;28;20060;-59
2024/01/04 01:02:19;;;;;;;0.22;0.15;;;;;;;-21.76;52.44;98859.66;5084398;28;20075;-54
2024/01/04 01:04:45;;;;;;;3.53;2.10;;;;;;;-21.48;52.64;98900.47;5077402;28;20048;-56
2024/01/04 01:07:12;;;;;;;5.35;1.50;;;;;;;-21.77;51.85;98853.03;5083714;28;20048;-51
2024/01/04 01:09:39;;;;;;;0.90;0.50;;;;;;;-21.81;52.47;98846.97;5081752;28;20047;-54
2024/01/04 01:12:05;;;;;;;6.15;1.27;;;;;;;-21.79;51.96;98850.44;5068151;28;20163;-57
2024/01/04 01:14:33;;;;;;;3.03;0.20;;;;;;;-21.48;52.20;98902.94;5083718;28;20047;-53
2024/01/04 01:16:58;;;;;;;0.80;0.20;;;;;;;-21.79;52.37;98850.44;5067711;28;20040;-55
2024/01/04 01:19:24;;;;;;;3.45;0.25;;;;;;;-21.51;52.39;98901.84;5080788;28;20148;-54
2024/01/04 01:21:50;;;;;;;1.02;0.95;;;;;;;-21.54;52.26;98902.47;5084101;28;20515;-55
2024/01/04 01:24:16;;;;;;;0.80;0.57;;;;;;;-21.50;51.92;98898.63;5054836;28;20040;-59
2024/01/04 01:26:44;;;;;;;2.35;2.08;;;;;;;-21.50;51.85;98891.22;5085607;28;20055;-58
2024/01/04 01:29:10;;;;;;;0.93;0.60;;;;;;;-21.55;52.36;98900.72;5083761;28;20050;-55
2024/01/04 01:31:40;;;;;;;1.25;1.00;;;;;;;-21.50;51.77;98899.47;5087683;28;20040;-55
2024/01/04 01:34:07;;;;;;;2.70;0.80;;;;;;;-22.08;52.01;98807.94;5068439;28;20119;-56
2024/01/04 01:36:32;;;;;;;11.23;1.23;;;;;;;-21.54;51.97;98900.00;5086017;28;20186;-53
2024/01/04 01:38:58;;;;;;;1.75;0.80;;;;;;;-21.49;51.69;98908.59;5082777;28;20802;-56
2024/01/04 01:41:24;;;;;;;0.38;0.22;;;;;;;-21.51;51.59;98904.31;5062354;28;20055;-53
2024/01/04 01:43:50;;;;;;;0.65;0.50;;;;;;;-21.52;52.11;98907.53;5075214;28;20700;-54
2024/01/04 01:46:16;;;;;;;0.45;0.20;;;;;;;-21.57;51.48;98899.78;5071002;28;20052;-55
2024/01/04 01:48:42;;;;;;;3.88;0.95;;;;;;;-21.57;51.44;98904.72;5075162;28;20036;-57
2024/01/04 01:51:08;;;;;;;1.58;1.33;;;;;;;-21.55;52.13;98913.06;5070715;28;20040;-53
2024/01/04 01:53:35;;;;;;;0.45;0.38;;;;;;;-21.89;51.72;98852.94;5083085;28;20055;-57
2024/01/04 01:56:01;;;;;;;0.95;0.88;;;;;;;-21.88;51.57;98856.25;5073724;28;20138;-55
2024/01/04 01:58:27;;;;;;;1.67;0.25;;;;;;;-21.61;52.09;98898.66;5060567;28;20844;-53
2024/01/04 02:00:53;;;;;;;2.28;1.25;;;;;;;-21.59;51.58;98891.38;5072058;28;20063;-52
2024/01/04 02:03:19;;;;;;;1.80;0.60;;;;;;;-21.59;52.24;98907.03;5074849;28;20408;-53
2024/01/04 02:05:45;;;;;;;1.05;0.98;;;;;;;-21.58;51.98;98895.56;5059588;28;20090;-54
2024/01/04 02:08:11;;;;;;;3.10;1.48;;;;;;;-21.59;51.66;98892.25;5083020;28;20697;-54
2024/01/04 02:10:37;;;;;;;2.05;0.57;;;;;;;-21.60;51.81;98907.78;5086528;28;20043;-56
2024/01/04 02:13:03;;;;;;;0.70;0.60;;;;;;;-21.57;52.13;98899.78;5064670;28;20086;-53
2024/01/04 02:15:29;;;;;;;0.60;0.55;;;;;;;-21.70;51.97;98890.56;5084360;28;20139;-54
2024/01/04 02:17:55;;;;;;;0.88;0.88;;;;;;;-21.61;51.66;98901.13;5080535;28;20051;-55
2024/01/04 02:20:41;;;;;;;0.20;0.20;;;;;;;-21.64;51.61;98897.56;5081207;28;20393;-53
2024/01/04 02:23:07;;;;;;;0.73;0.68;;;;;;;-21.69;51.74;98888.97;5081192;28;20511;-54
2024/01/04 02:25:32;;;;;;;1.05;0.95;;;;;;;-21.62;51.64;98898.56;5083249;28;20454;-53
2024/01/04 02:27:58;;;;;;;0.13;0.13;;;;;;;-21.96;51.62;98844.97;5067993;28;20089;-52
2024/01/04 02:30:24;;;;;;;2.38;0.40;;;;;;;-21.70;51.62;98899.56;5068818;28;20035;-52
2024/01/04 02:32:51;;;;;;;2.47;0.70;;;;;;;-21.68;51.65;98907.94;5087080;28;20063;-53
2024/01/04 02:35:17;;;;;;;2.80;0.90;;;;;;;-21.91;51.54;98874.13;5087326;28;20131;-55
2024/01/04 02:37:43;;;;;;;0.75;0.75;;;;;;;-21.68;51.14;98900.56;5087406;28;20122;-55
2024/01/04 02:40:10;;;;;;;1.15;0.28;;;;;;;-21.65;51.62;98895.84;5087934;28;20097;-57
2024/01/04 02:42:36;;;;;;;1.73;0.77;;;;;;;-21.71;51.36;98881.44;5071994;28;20028;-54
2024/01/04 02:45:02;;;;;;;3.22;1.63;;;;;;;-21.71;51.62;98866.66;5085319;28;20047;-52
2024/01/04 02:47:29;;;;;;;0.98;0.90;;;;;;;-21.68;51.46;98873.44;5085474;28;20050;-52
2024/01/04 02:49:55;;;;;;;3.83;0.98;;;;;;;-21.67;51.71;98867.75;5084373;28;20126;-54
2024/01/04 02:52:21;;;;;;;0.00;0.00;;;;;;;-21.67;51.40;98870.22;5085829;28;20059;-54
2024/01/04 02:54:46;;;;;;;2.42;0.52;;;;;;;-21.66;51.92;98867.00;5082686;28;20131;-56
2024/01/04 02:57:12;;;;;;;2.00;0.50;;;;;;;-21.61;52.00;98868.25;5080060;28;20043;-54
2024/01/04 02:59:38;;;;;;;4.43;0.38;;;;;;;-21.59;51.35;98881.53;5069749;28;20032;-52
2024/01/04 03:02:04;;;;;;;0.80;0.77;;;;;;;-21.65;51.54;98866.25;5082035;28;20043;-57
2024/01/04 03:04:30;;;;;;;0.05;0.05;;;;;;;-21.65;51.84;98864.66;5083041;28;20071;-55
2024/01/04 03:06:56;;;;;;;1.42;1.27;;;;;;;-21.68;51.75;98873.44;5081002;28;20827;-58
2024/01/04 03:09:22;;;;;;;0.43;0.43;;;;;;;-21.70;51.81;98875.78;5084024;28;20115;-51
2024/01/04 03:11:48;;;;;;;1.30;1.02;;;;;;;-21.71;52.07;98864.19;5083617;28;20036;-52
2024/01/04 03:14:13;;;;;;;0.17;0.17;;;;;;;-22.01;52.04;98807.66;5082952;28;20044;-53
2024/01/04 03:16:40;;;;;;;0.63;0.63;;;;;;;-21.73;51.92;98858.28;5084363;28;20056;-53
2024/01/04 03:19:06;;;;;;;0.88;0.20;;;;;;;-21.76;52.20;98855.56;5084914;28;20510;-58
2024/01/04 03:21:32;;;;;;;3.40;1.17;;;;;;;-21.75;52.06;98856.44;5078403;28;20036;-59
2024/01/04 03:23:57;;;;;;;7.80;1.00;;;;;;;-21.75;51.81;98854.84;5085108;28;20150;-57
2024/01/04 03:26:23;;;;;;;0.95;0.35;;;;;;;-21.92;52.13;98837.88;5063791;28;20423;-57
2024/01/04 03:28:49;;;;;;;1.02;0.75;;;;;;;-21.78;51.96;98859.56;5084960;28;20470;-53
2024/01/04 03:31:15;;;;;;;3.08;1.50;;;;;;;-21.77;51.85;98857.94;5085822;28;20129;-54
2024/01/04 03:33:40;;;;;;;0.43;0.32;;;;;;;-21.85;51.70;98849.94;5086083;28;20157;-55
2024/01/04 03:36:07;;;;;;;0.10;0.10;;;;;;;-21.73;51.67;98859.91;5086000;28;20048;-56
2024/01/04 03:38:34;;;;;;;1.42;0.63;;;;;;;-21.67;51.71;98866.16;5082977;28;20043;-55
2024/01/04 03:41:01;;;;;;;0.35;0.35;;;;;;;-21.69;51.74;98859.38;5084201;28;20040;-55
2024/01/04 03:43:27;;;;;;;1.90;0.68;;;;;;;-21.64;51.71;98870.44;5085172;28;20050;-59
2024/01/04 03:45:53;;;;;;;2.40;1.55;;;;;;;-21.97;51.74;98816.13;5083572;28;20131;-57
2024/01/04 03:48:19;;;;;;;7.47;1.27;;;;;;;-21.64;51.65;98865.53;5068398;28;20050;-57
2024/01/04 03:50:45;;;;;;;0.52;0.52;;;;;;;-21.61;52.08;98869.06;5083772;28;20066;-54
2024/01/04 03:53:11;;;;;;;0.63;0.60;;;;;;;-21.60;52.08;98848.59;5065148;28;20048;-53
2024/01/04 03:55:36;;;;;;;2.15;0.47;;;;;;;-21.55;51.44;98851.41;5083330;28;20048;-53
2024/01/04 03:58:02;;;;;;;0.63;0.63;;;;;;;-21.47;51.91;98847.06;5080609;28;20039;-52
2024/01/04 04:00:28;;;;;;;1.70;1.48;;;;;;;-21.42;51.87;98844.22;5098887;28;20036;-57
2024/01/04 04:02:54;;;;;;;0.20;0.20;;;;;;;-21.36;51.88;98848.75;5083603;28;20044;-53
2024/01/04 04:05:20;;;;;;;2.83;1.85;;;;;;;-21.31;51.06;98838.47;5082015;28;20036;-52
2024/01/04 04:07:46;;;;;;;0.80;0.80;;;;;;;-21.25;51.58;98834.00;5081060;28;20109;-56
2024/01/04 04:10:12;;;;;;;0.40;0.40;;;;;;;-21.15;51.45;98838.00;5080220;28;20036;-57
2024/01/04 04:12:38;;;;;;;1.42;0.85;;;;;;;-21.17;51.14;98830.50;5077108;28;20044;-57
2024/01/04 04:15:04;;;;;;;0.15;0.15;;;;;;;-21.31;51.33;98798.16;5080905;28;20044;-57
2024/01/04 04:17:30;;;;;;;4.22;1.08;;;;;;;-21.27;51.08;98805.03;5067420;28;20044;-54
2024/01/04 04:19:56;;;;;;;1.75;1.10;;;;;;;-20.98;51.02;98845.00;5099465;28;20159;-56
2024/01/04 04:22:22;;;;;;;4.18;1.45;;;;;;;-21.29;50.86;98790.09;5084076;28;20134;-56
2024/01/04 04:24:47;;;;;;;2.22;0.43;;;;;;;-21.02;50.46;98842.19;5081523;28;20040;-57
2024/01/04 04:27:14;;;;;;;0.10;0.10;;;;;;;-21.04;50.48;98844.56;5077631;28;20062;-56
2024/01/04 04:29:40;;;;;;;2.95;0.98;;;;;;;-21.09;50.61;98838.44;5046608;28;20040;-55
2024/01/04 04:32:08;;;;;;;1.65;0.60;;;;;;;-21.07;50.62;98841.00;5051890;28;20052;-52
2024/01/04 04:34:35;;;;;;;1.52;0.85;;;;;;;-21.01;50.30;98826.63;5075472;28;20072;-54
2024/01/04 04:37:01;;;;;;;1.27;0.85;;;;;;;-21.29;50.63;98782.69;5082397;28;20740;-53
2024/01/04 04:39:27;;;;;;;1.35;1.08;;;;;;;-21.05;51.02;98823.09;5070537;28;20063;-51
2024/01/04 04:41:53;;;;;;;4.13;1.45;;;;;;;-21.14;50.93;98801.09;5078392;28;20469;-52
2024/01/04 04:44:20;;;;;;;1.67;1.58;;;;;;;-21.05;51.13;98818.16;5080473;28;20040;-55
2024/01/04 04:46:46;;;;;;;9.23;0.70;;;;;;;-21.04;51.06;98829.75;5079519;28;20139;-57
2024/01/04 04:49:13;;;;;;;1.83;0.88;;;;;;;-21.05;50.69;98827.16;5084017;28;20600;-55
2024/01/04 04:51:38;;;;;;;1.73;0.47;;;;;;;-21.03;50.63;98831.44;5083447;28;20048;-55
2024/01/04 04:54:04;;;;;;;2.40;0.88;;;;;;;-21.02;51.24;98834.78;5079812;28;20063;-54
2024/01/04 04:56:31;;;;;;;1.70;0.95;;;;;;;-21.02;50.91;98833.19;5069881;28;20044;-54
2024/01/04 04:58:57;;;;;;;0.73;0.63;;;;;;;-21.06;50.86;98841.13;5084308;28;20048;-54
2024/01/04 05:01:22;;;;;;;0.98;0.90;;;;;;;-21.07;50.63;98836.91;5087121;28;20569;-53
2024/01/04 05:03:49;;;;;;;2.10;0.88;;;;;;;-21.10;50.40;98824.38;5086851;28;20062;-52
2024/01/04 05:06:15;;;;;;;1.88;1.60;;;;;;;-21.03;50.72;98825.66;5084814;28;20060;-58
2024/01/04 05:08:41;;;;;;;0.85;0.63;;;;;;;-21.01;50.49;98827.50;5086559;28;20062;-52
2024/01/04 05:11:06;;;;;;;3.25;1.13;;;;;;;-21.47;50.61;98749.28;5071743;28;20432;-53
2024/01/04 05:13:33;;;;;;;0.35;0.20;;;;;;;-21.30;50.37;98780.13;5081674;28;20499;-55
2024/01/04 05:16:00;;;;;;;1.45;1.00;;;;;;;-21.16;50.62;98787.78;5087414;28;20043;-57
2024/01/04 05:18:26;;;;;;;7.03;1.65;;;;;;;-20.95;50.55;98829.56;5088514;28;20048;-53
2024/01/04 05:20:52;;;;;;;0.32;0.32;;;;;;;-20.98;49.89;98817.00;5086149;28;20036;-54
2024/01/04 05:23:18;;;;;;;2.00;0.82;;;;;;;-21.00;49.67;98820.97;5079542;28;20051;-55
2024/01/04 05:25:44;;;;;;;0.10;0.10;;;;;;;-20.97;50.09;98826.97;5083259;28;20055;-56
2024/01/04 05:28:11;;;;;;;3.97;1.52;;;;;;;-20.88;50.21;98830.09;5081119;28;20048;-56
2024/01/04 05:30:37;;;;;;;0.13;0.13;;;;;;;-20.89;50.10;98823.47;5053851;28;20064;-54
2024/01/04 05:33:03;;;;;;;1.08;0.47;;;;;;;-20.81;49.16;98832.28;5068430;28;20184;-53
2024/01/04 05:35:30;;;;;;;1.25;1.00;;;;;;;-20.84;49.03;98834.53;5070687;28;20051;-59
2024/01/04 05:37:57;;;;;;;1.90;1.73;;;;;;;-20.86;49.34;98840.09;5087009;28;20052;-57
2024/01/04 05:40:23;;;;;;;2.85;1.15;;;;;;;-20.94;49.96;98833.75;5087774;28;20503;-56
2024/01/04 05:42:49;;;;;;;1.23;1.02;;;;;;;-20.95;49.56;98844.38;5084059;28;20043;-57
2024/01/04 05:45:15;;;;;;;3.22;1.48;;;;;;;-21.26;49.81;98784.53;5085528;28;20051;-55
2024/01/04 05:47:41;;;;;;;1.17;0.90;;;;;;;-21.04;49.87;98828.91;5088008;28;20051;-56
2024/01/04 05:50:07;;;;;;;2.65;0.93;;;;;;;-21.08;49.60;98826.94;5087224;28;20048;-57
2024/01/04 05:52:33;;;;;;;0.22;0.22;;;;;;;-21.13;49.96;98825.00;5081344;28;20040;-59
2024/01/04 05:54:59;;;;;;;6.88;0.60;;;;;;;-21.17;50.09;98828.03;5085200;28;20040;-55
2024/01/04 05:57:30;;;;;;;1.80;0.95;;;;;;;-21.20;49.65;98827.81;5068053;28;20051;-58
2024/01/04 05:59:56;;;;;;;0.80;0.65;;;;;;;-21.24;49.66;98822.50;5071578;28;20518;-56
2024/01/04 06:02:26;;;;;;;7.00;2.10;;;;;;;-21.22;49.85;98824.34;5087393;28;20047;-54
2024/01/04 06:04:53;;;;;;;2.28;0.60;;;;;;;-21.27;50.52;98823.16;5091367;28;20078;-54
2024/01/04 06:07:19;;;;;;;3.85;0.90;;;;;;;-21.32;50.45;98818.63;5085019;28;20777;-58
2024/01/04 06:09:44;;;;;;;1.02;0.75;;;;;;;-21.30;50.74;98810.59;5086562;28;20093;-57
2024/01/04 06:12:10;;;;;;;1.05;1.02;;;;;;;-21.55;50.93;98762.66;5069409;28;20040;-58
2024/01/04 06:14:36;;;;;;;3.55;1.48;;;;;;;-21.32;50.68;98806.28;5080931;28;20044;-56
2024/01/04 06:17:03;;;;;;;0.35;0.35;;;;;;;-21.35;51.25;98809.38;5073483;28;20052;-58
2024/01/04 06:19:29;;;;;;;2.72;1.15;;;;;;;-21.37;51.02;98805.09;5072791;28;20072;-60
2024/01/04 06:21:55;;;;;;;2.38;0.88;;;;;;;-21.42;50.91;98798.94;5071575;28;20074;-57
2024/01/04 06:24:23;;;;;;;0.47;0.45;;;;;;;-21.49;51.42;98800.09;5091853;28;20070;-58
2024/01/04 06:26:49;;;;;;;3.65;1.35;;;;;;;-21.44;51.25;98800.44;5079666;28;20075;-55
2024/01/04 06:29:15;;;;;;;3.53;1.25;;;;;;;-21.45;50.95;98816.84;5081496;28;20044;-60
2024/01/04 06:31:41;;;;;;;1.35;1.25;;;;;;;-21.74;51.29;98760.44;5074900;28;20498;-59
2024/01/04 06:34:06;;;;;;;1.73;1.45;;;;;;;-21.42;51.67;98816.22;5078694;28;20068;-53
2024/01/04 06:36:32;;;;;;;1.50;0.98;;;;;;;-21.35;51.95;98811.00;5074027;28;20078;-56
2024/01/04 06:38:58;;;;;;;0.05;0.05;;;;;;;-21.29;51.80;98816.38;5076233;28;20047;-56
2024/01/04 06:41:29;;;;;;;2.83;0.73;;;;;;;-21.26;51.68;98819.94;5074080;28;20089;-55
2024/01/04 06:43:56;;;;;;;2.10;1.52;;;;;;;-21.24;51.82;98813.50;5080177;28;20089;-55
2024/01/04 06:46:22;;;;;;;2.92;1.13;;;;;;;-21.18;51.68;98821.34;5082130;28;20044;-52
2024/01/04 06:48:48;;;;;;;2.15;1.08;;;;;;;-21.07;51.57;98819.66;5063729;28;20040;-56
2024/01/04 06:51:14;;;;;;;0.63;0.28;;;;;;;-21.27;51.64;98766.41;5059518;28;20419;-58
2024/01/04 06:53:39;;;;;;;2.13;1.42;;;;;;;-20.95;52.04;98809.81;5082517;28;20040;-58
2024/01/04 06:56:05;;;;;;;1.75;0.93;;;;;;;-20.92;51.64;98810.03;5073091;28;20040;-57
2024/01/04 06:58:32;;;;;;;0.47;0.47;;;;;;;-20.88;52.00;98814.47;5071579;28;20118;-56
2024/01/04 07:00:58;;;;;;;1.20;0.68;;;;;;;-20.86;52.08;98813.81;5071823;28;20044;-58
2024/01/04 07:03:25;;;;;;;0.98;0.93;;;;;;;-20.82;51.23;98809.94;5082227;28;20063;-57
2024/01/04 07:05:51;;;;;;;0.70;0.20;;;;;;;-20.77;51.10;98799.66;5084825;28;20053;-56
2024/01/04 07:08:17;;;;;;;4.68;1.67;;;;;;;-20.80;51.19;98759.94;5079804;28;20096;-56
2024/01/04 07:10:42;;;;;;;3.67;0.82;;;;;;;-19.49;51.14;98806.13;5089036;28;20557;-57
2024/01/04 07:13:09;;;;;;;0.50;0.28;;;;;;;-18.29;49.74;98809.88;5077909;28;20035;-58
2024/01/04 07:15:35;;;;;;;2.95;1.23;;;;;;;-17.75;48.38;98797.56;5074577;28;20143;-54
2024/01/04 07:18:01;;;;;;;3.83;1.50;;;;;;;-17.45;47.70;98805.94;5076464;28;20173;-55
2024/01/04 07:20:27;;;;;;;4.97;1.40;;;;;;;-17.26;47.17;98806.25;5082147;28;20036;-58
2024/01/04 07:22:53;;;;;;;1.52;0.95;;;;;;;-17.09;46.96;98808.88;5086185;28;20090;-58
2024/01/04 07:25:22;;;;;;;4.50;2.50;;;;;;;-16.78;46.32;98814.88;5084336;28;20043;-58
2024/01/04 07:27:48;;;;;;;3.67;1.70;;;;;;;-16.49;45.94;98797.47;5083476;28;20042;-58
2024/01/04 07:30:14;;;;;;;5.50;1.92;;;;;;;-15.68;44.91;98799.41;5084133;28;20044;-57
2024/01/04 07:32:40;;;;;;;3.33;2.05;;;;;;;-15.44;44.54;98808.16;5082959;28;20124;-58
2024/01/04 07:35:08;;;;;;;0.95;0.93;;;;;;;-16.21;44.14;98720.25;5067777;28;20138;-57
2024/01/04 07:37:34;;;;;;;0.90;0.80;;;;;;;-16.09;44.12;98804.66;5085643;28;20031;-56
2024/01/04 07:40:00;;;;;;;3.13;1.40;;;;;;;-16.33;44.14;98815.75;5086236;28;20051;-58
2024/01/04 07:42:26;;;;;;;1.92;1.15;;;;;;;-16.13;44.51;98803.63;5085029;28;20044;-55
2024/01/04 07:44:52;;;;;;;5.97;2.45;;;;;;;-15.73;44.10;98801.66;5083351;28;20044;-54
2024/01/04 07:47:18;;;;;;;4.70;1.88;;;;;;;-15.19;44.32;98815.28;5068750;28;20460;-58
2024/01/04 07:49:44;;;;;;;6.57;2.72;;;;;;;-15.02;42.75;98769.66;5084237;28;20381;-55
2024/01/04 07:52:11;;;;;;;3.10;1.23;;;;;;;-14.12;42.32;98801.44;5072889;28;20044;-57
2024/01/04 07:54:36;;;;;;;5.55;2.03;;;;;;;-13.71;41.62;98801.78;5073366;28;20068;-57
2024/01/04 07:57:03;;;;;;;2.30;1.60;;;;;;;-13.98;40.53;98802.97;5072800;28;20047;-55
2024/01/04 07:59:29;;;;;;;5.57;2.78;;;;;;;-14.04;41.63;98802.69;5063133;28;20044;-59
2024/01/04 08:01:55;;;;;;;13.00;2.80;;;;;;;-13.68;41.40;98801.91;5071632;28;20040;-56
2024/01/04 08:04:21;;;;;;;8.63;2.63;;;;;;;-12.67;40.55;98812.19;5090094;28;20083;-56
2024/01/04 08:06:50;;;;;;;7.72;2.28;;;;;;;-11.81;39.20;98802.34;5074183;28;20101;-54
2024/01/04 08:09:20;;;;;;;10.50;2.63;;;;;;;-11.92;38.53;98794.41;5071154;28;20084;-57
2024/01/04 08:11:46;;;;;;;6.25;2.15;;;;;;;-11.93;38.45;98807.72;5073462;28;20534;-56
2024/01/04 08:14:12;;;;;;;6.50;3.05;;;;;;;-11.92;37.62;98779.38;5079540;28;20083;-55
2024/01/04 08:16:38;;;;;;;8.27;2.05;;;;;;;-11.43;37.94;98821.31;5084247;28;20040;-61
2024/01/04 08:19:04;;;;;;;5.35;2.05;;;;;;;-10.92;37.86;98817.38;5086948;28;20039;-59
2024/01/04 08:21:30;;;;;;;4.30;1.95;;;;;;;-10.46;37.36;98804.75;5082458;28;20040;-60
2024/01/04 08:23:56;;;;;;;8.10;3.25;;;;;;;-9.94;36.99;98814.81;5082630;28;20100;-59
2024/01/04 08:26:22;;;;;;;4.70;2.53;;;;;;;-10.31;36.04;98825.38;5082033;28;20085;-56
2024/01/04 08:28:49;;;;;;;7.70;3.30;;;;;;;-10.77;36.16;98791.16;5083928;28;20086;-58
2024/01/04 08:31:15;;;;;;;8.32;2.85;;;;;;;-10.34;35.81;98808.53;5083392;28;20048;-57
2024/01/04 08:33:41;;;;;;;5.85;3.05;;;;;;;-9.80;35.58;98803.56;5084096;28;20400;-55
2024/01/04 08:36:06;;;;;;;7.90;3.25;;;;;;;-9.17;35.88;98773.59;5089447;28;20040;-53
2024/01/04 08:38:33;;;;;;;8.02;2.85;;;;;;;-8.49;35.08;98797.28;5087431;28;20048;-55
2024/01/04 08:40:59;;;;;;;8.85;2.75;;;;;;;-8.16;34.34;98790.53;5083219;28;20610;-53
2024/01/04 08:43:25;;;;;;;13.40;3.08;;;;;;;-8.52;34.08;98737.59;5084127;28;20456;-58
2024/01/04 08:45:51;;;;;;;7.03;2.63;;;;;;;-9.04;33.99;98784.03;5084032;28;20133;-56
2024/01/04 08:48:17;;;;;;;10.00;3.20;;;;;;;-9.66;34.37;98787.25;5079303;28;20448;-57
2024/01/04 08:50:42;;;;;;;8.18;3.10;;;;;;;-9.37;34.29;98783.09;5075149;28;20044;-57
2024/01/04 08:53:08;;;;;;;7.65;2.60;;;;;;;-9.10;33.89;98785.53;5082633;28;20048;-54
2024/01/04 08:55:34;;;;;;;8.80;2.63;;;;;;;-8.84;33.12;98788.75;5071195;28;20094;-59
2024/01/04 08:58:02;;;;;;;7.00;2.90;;;;;;;-9.04;32.87;98796.63;5073335;28;20060;-58
2024/01/04 09:00:27;;;;;;;6.97;2.92;;;;;;;-9.23;32.90;98786.00;5082954;28;20044;-57
2024/01/04 09:02:53;;;;;;;8.32;3.17;;;;;;;-8.85;33.06;98792.13;5081930;28;20086;-58
2024/01/04 09:05:19;;;;;;;8.48;2.97;;;;;;;-8.51;32.22;98788.81;5064011;28;20143;-54
2024/01/04 09:07:45;;;;;;;8.63;3.40;;;;;;;-7.74;31.57;98794.09;5085498;28;20561;-61
2024/01/04 09:10:11;;;;;;;8.07;3.55;;;;;;;-6.81;31.27;98795.28;5070574;28;20044;-59
2024/01/04 09:12:39;;;;;;;11.20;3.17;;;;;;;-6.21;30.93;98787.97;5082936;28;20495;-56
2024/01/04 09:15:07;;;;;;;15.15;4.25;;;;;;;-6.12;30.33;98793.19;5082395;28;20113;-57
2024/01/04 09:17:34;;;;;;;8.52;2.75;;;;;;;-6.98;30.38;98798.31;5079889;28;20060;-57
2024/01/04 09:20:00;;;;;;;7.28;3.03;;;;;;;-6.85;30.50;98785.09;5065312;28;20048;-51
2024/01/04 09:22:26;;;;;;;8.35;2.75;;;;;;;-7.06;30.37;98779.63;5083800;28;20032;-57
2024/01/04 09:24:52;;;;;;;10.07;3.00;;;;;;;-6.84;29.71;98730.38;5081831;28;20040;-57
2024/01/04 09:27:19;;;;;;;9.70;4.40;;;;;;;-6.00;29.58;98768.09;5089937;28;20387;-53
2024/01/04 09:29:47;;;;;;;11.10;3.92;;;;;;;-5.97;29.18;98727.69;5086322;28;20126;-55
2024/01/04 09:32:13;;;;;;;12.32;4.05;;;;;;;-5.49;29.48;98760.41;5083840;28;20044;-56
2024/01/04 09:34:39;;;;;;;8.63;3.58;;;;;;;-4.87;29.17;98755.34;5081209;28;20089;-57
2024/01/04 09:37:05;;;;;;;14.43;4.32;;;;;;;-4.39;28.59;98749.91;5082693;28;20110;-56
2024/01/04 09:39:31;;;;;;;9.63;4.18;;;;;;;-4.47;28.60;98749.00;5078510;28;20504;-56
2024/01/04 09:41:58;;;;;;;9.63;3.58;;;;;;;-4.71;27.52;98760.56;5085293;28;20065;-59
2024/01/04 09:44:24;;;;;;;9.60;3.75;;;;;;;-5.12;28.15;98711.09;5066783;28;20051;-58
2024/01/04 09:46:53;;;;;;;8.68;3.40;;;;;;;-4.46;27.89;98755.78;5079808;28;20043;-58
2024/01/04 09:49:19;;;;;;;7.50;3.03;;;;;;;-3.89;27.52;98747.84;5077256;28;20131;-57
2024/01/04 09:51:45;;;;;;;8.70;4.00;;;;;;;-4.15;26.78;98723.94;5074108;28;20075;-65
2024/01/04 09:54:11;;;;;;;10.13;4.28;;;;;;;-4.42;27.03;98749.91;5086197;28;20070;-51
2024/01/04 09:56:42;;;;;;;8.52;3.35;;;;;;;-5.42;27.36;98723.38;5068226;28;20483;-53
2024/01/04 09:59:09;;;;;;;7.07;3.33;;;;;;;-7.32;27.99;98750.44;5069141;28;20562;-57
2024/01/04 10:01:37;;;;;;;8.23;3.33;;;;;;;-9.01;28.97;98748.91;5076222;28;20068;-56
2024/01/04 10:04:12;;;;;;;8.63;3.58;;;;;;;-10.28;30.47;98746.75;5085549;28;20041;-57
2024/01/04 10:06:40;;;;;;;12.48;3.20;;;;;;;-11.29;30.46;98698.16;5073288;28;20094;-57
2024/01/04 10:09:16;;;;;;;12.48;3.65;;;;;;;-11.61;31.73;98749.63;5075403;28;20101;-55
2024/01/04 10:11:56;;;;;;;9.43;3.05;;;;;;;-12.19;31.81;98760.75;5081911;28;20053;-52
2024/01/04 10:14:23;;;;;;;8.73;2.55;;;;;;;-12.70;32.29;98757.00;5084580;28;20135;-57
2024/01/04 10:16:49;;;;;;;5.47;2.45;;;;;;;-13.55;32.98;98678.41;5069076;28;20567;-56
2024/01/04 10:19:15;;;;;;;10.40;2.78;;;;;;;-13.38;33.09;98758.28;5080729;28;20050;-55
2024/01/04 10:21:41;;;;;;;9.25;2.72;;;;;;;-13.66;33.22;98750.38;5085640;28;20046;-56
2024/01/04 10:24:08;;;;;;;7.55;2.25;;;;;;;-13.90;34.22;98762.59;5089642;28;20078;-55
2024/01/04 10:26:34;;;;;;;7.32;3.05;;;;;;;-14.12;34.50;98752.38;5088036;28;20040;-54
2024/01/04 10:29:00;;;;;;;8.93;3.13;;;;;;;-14.29;35.26;98755.75;5083626;28;20058;-54
2024/01/04 10:31:26;;;;;;;7.63;3.03;;;;;;;-14.45;34.58;98760.81;5085532;28;20439;-58
2024/01/04 10:33:59;;;;;;;5.88;2.42;;;;;;;-14.55;35.17;98764.53;5083188;28;20044;-56
2024/01/04 10:36:28;;;;;;;2.38;1.70;;;;;;;-14.76;35.58;98763.47;5086724;28;20051;-56
2024/01/04 10:38:58;;;;;;;6.40;2.25;;;;;;;-14.90;35.73;98765.25;5086821;28;20089;-54
2024/01/04 10:41:28;;;;;;;5.88;2.97;;;;;;;-15.23;35.78;98709.63;5080963;28;20043;-57
2024/01/04 10:44:09;;;;;;;7.53;3.05;;;;;;;-14.95;36.03;98765.81;5074479;28;20044;-53
2024/01/04 10:46:36;;;;;;;3.83;2.10;;;;;;;-15.04;36.19;98761.22;5072640;28;20139;-52
2024/01/04 10:49:05;;;;;;;7.15;2.47;;;;;;;-15.13;37.18;98759.13;5081069;28;20044;-53
2024/01/04 10:51:31;;;;;;;8.25;3.08;;;;;;;-15.07;37.11;98768.56;5076722;28;20048;-52
2024/01/04 10:54:01;;;;;;;9.35;2.33;;;;;;;-13.61;37.09;98763.06;5067419;28;20520;-54
2024/01/04 10:56:35;;;;;;;7.28;2.10;;;;;;;-11.74;35.44;98765.06;5074529;28;20043;-57
2024/01/04 10:59:03;;;;;;;9.23;3.22;;;;;;;-10.20;34.39;98732.78;5086843;28;20032;-56
2024/01/04 11:01:29;;;;;;;9.05;2.40;;;;;;;-8.61;33.06;98755.00;5085630;28;20036;-54
2024/01/04 11:03:58;;;;;;;5.28;2.30;;;;;;;-7.73;31.99;98754.59;5073215;28;20530;-58
2024/01/04 11:06:26;;;;;;;6.97;3.20;;;;;;;-7.22;31.84;98709.41;5068890;28;20039;-55
2024/01/04 11:08:56;;;;;;;20.98;3.10;;;;;;;-6.55;31.29;98746.09;5085418;28;20290;-51
2024/01/04 11:11:24;;;;;;;12.30;3.45;;;;;;;-6.28;30.98;98749.06;5069173;28;20039;-50
2024/01/04 11:13:53;;;;;;;8.82;3.53;;;;;;;-5.84;30.40;98743.84;5083553;28;20043;-53
2024/01/04 11:16:40;;;;;;;6.10;3.10;;;;;;;-5.59;30.40;98749.31;5084625;28;20508;-52
2024/01/04 11:19:36;;;;;;;8.10;2.95;;;;;;;-5.37;30.30;98742.00;5083031;28;20127;-50
2024/01/04 11:22:26;;;;;;;8.52;3.00;;;;;;;-5.27;29.33;98741.28;5080186;28;20040;-55
2024/01/04 11:25:22;;;;;;;8.05;3.55;;;;;;;-5.53;29.16;98659.94;5082016;28;20080;-52